OMD750 PANC-PAAT
Flight info
| Callsign | OMD750 |
|---|---|
| Flight time | 3h 45m |
| Altitude | 40000 |
| Route | TURNA8 TED V319 BET V480 KEREC/N0470F400 |
| Aircraft | B736/M-SDE2E3FGHIRWXY/LB1 |
Departure
| Time | 2026-05-04 17:08 |
|---|---|
| Airport | Ted Stevens Anchorage International Airport (PANC) |
Arrival
| Time | 2026-05-04 20:53 |
|---|---|
| Airport | Casco Cove Coast Guard Station (PAAT) |
| Time | Latitude | Longitude | Altitude | Speed | Heading |
|---|---|---|---|---|---|
| 2026-05-04 16:29 | 61.17271 | -149.94964 | 93 ft | 0 kts | 0° |
| 2026-05-04 16:39 | 61.17270 | -149.94964 | 93 ft | 0 kts | 0° |
| 2026-05-04 16:43 | 61.17271 | -149.94964 | 94 ft | 0 kts | 0° |
| 2026-05-04 16:55 | 61.17270 | -149.94964 | 94 ft | 0 kts | 0° |
| 2026-05-04 16:55 | 61.17268 | -149.94964 | 103 ft | 0 kts | 0° |
| 2026-05-04 16:56 | 61.17264 | -149.94964 | 103 ft | 0 kts | 0° |
| 2026-05-04 16:56 | 61.17255 | -149.94958 | 93 ft | 1 kts | 279° |
| 2026-05-04 16:57 | 61.17255 | -149.94950 | 92 ft | 1 kts | 273° |
| 2026-05-04 16:57 | 61.17254 | -149.94921 | 99 ft | 2 kts | 274° |
| 2026-05-04 16:58 | 61.17253 | -149.94876 | 98 ft | 0 kts | 274° |
| 2026-05-04 17:00 | 61.17252 | -149.94889 | 102 ft | 2 kts | 263° |
| 2026-05-04 17:01 | 61.17164 | -149.94928 | 94 ft | 4 kts | 184° |
| 2026-05-04 17:01 | 61.17128 | -149.95382 | 96 ft | 25 kts | 270° |
| 2026-05-04 17:02 | 61.17126 | -149.96053 | 96 ft | 22 kts | 269° |
| 2026-05-04 17:02 | 61.17127 | -149.96681 | 96 ft | 23 kts | 270° |
| 2026-05-04 17:03 | 61.17128 | -149.97071 | 98 ft | 31 kts | 270° |
| 2026-05-04 17:03 | 61.17118 | -149.97489 | 105 ft | 27 kts | 269° |
| 2026-05-04 17:03 | 61.17117 | -149.98171 | 114 ft | 22 kts | 270° |
| 2026-05-04 17:04 | 61.17117 | -149.98787 | 114 ft | 21 kts | 270° |
| 2026-05-04 17:04 | 61.17124 | -149.99354 | 120 ft | 18 kts | 270° |
| 2026-05-04 17:05 | 61.17125 | -149.99632 | 125 ft | 0 kts | 270° |
| 2026-05-04 17:07 | 61.17152 | -149.99872 | 129 ft | 8 kts | 323° |
| 2026-05-04 17:07 | 61.17188 | -149.99897 | 125 ft | 12 kts | 349° |
| 2026-05-04 17:07 | 61.17282 | -149.99944 | 126 ft | 54 kts | 344° |
| 2026-05-04 17:07 | 61.18062 | -150.00386 | 226 ft | 165 kts | 345° |
| 2026-05-04 17:08 | 61.19197 | -150.00886 | 1846 ft | 172 kts | 352° |
| 2026-05-04 17:08 | 61.22164 | -150.02398 | 3266 ft | 301 kts | 334° |
| 2026-05-04 17:08 | 61.24047 | -150.05578 | 2361 ft | 401 kts | 304° |
| 2026-05-04 17:09 | 61.25025 | -150.10855 | 3325 ft | 388 kts | 276° |
| 2026-05-04 17:09 | 61.24791 | -150.16242 | 5156 ft | 362 kts | 250° |
| 2026-05-04 17:09 | 61.24005 | -150.20925 | 7493 ft | 327 kts | 245° |
| 2026-05-04 17:10 | 61.22718 | -150.29284 | 11555 ft | 283 kts | 251° |
| 2026-05-04 17:10 | 61.21681 | -150.40648 | 15708 ft | 266 kts | 254° |
| 2026-05-04 17:11 | 61.21424 | -150.44481 | 16713 ft | 272 kts | 255° |
| 2026-05-04 17:11 | 61.21169 | -150.48549 | 17120 ft | 300 kts | 255° |
| 2026-05-04 17:11 | 61.20631 | -150.57979 | 17549 ft | 357 kts | 257° |
| 2026-05-04 17:12 | 61.20357 | -150.63267 | 17841 ft | 378 kts | 257° |
| 2026-05-04 17:12 | 61.19824 | -150.74214 | 19268 ft | 387 kts | 258° |
| 2026-05-04 17:13 | 61.18985 | -150.91184 | 21224 ft | 402 kts | 258° |
| 2026-05-04 17:14 | 61.18082 | -151.08785 | 23134 ft | 416 kts | 258° |
| 2026-05-04 17:14 | 61.17768 | -151.14781 | 23714 ft | 421 kts | 258° |
| 2026-05-04 17:14 | 61.17232 | -151.26971 | 24845 ft | 430 kts | 262° |
| 2026-05-04 17:15 | 61.17188 | -151.33187 | 25433 ft | 433 kts | 263° |
| 2026-05-04 17:15 | 61.17201 | -151.45733 | 26486 ft | 439 kts | 262° |
| 2026-05-04 17:16 | 61.17207 | -151.58459 | 27492 ft | 444 kts | 262° |
| 2026-05-04 17:16 | 61.17153 | -151.77801 | 28889 ft | 452 kts | 260° |
| 2026-05-04 17:17 | 61.17120 | -151.84315 | 29303 ft | 453 kts | 260° |
| 2026-05-04 17:17 | 61.17007 | -152.03845 | 30040 ft | 456 kts | 259° |
| 2026-05-04 17:18 | 61.16967 | -152.10311 | 29356 ft | 443 kts | 260° |
| 2026-05-04 17:18 | 61.16879 | -152.22975 | 26812 ft | 438 kts | 261° |
| 2026-05-04 17:19 | 61.16768 | -152.35527 | 24482 ft | 432 kts | 262° |
| 2026-05-04 17:19 | 61.16651 | -152.47897 | 22117 ft | 427 kts | 263° |
| 2026-05-04 17:20 | 61.16535 | -152.59932 | 20031 ft | 415 kts | 263° |
| 2026-05-04 17:20 | 61.16396 | -152.71747 | 17928 ft | 405 kts | 263° |
| 2026-05-04 17:20 | 61.16328 | -152.77545 | 16835 ft | 400 kts | 263° |
| 2026-05-04 17:21 | 61.16186 | -152.88923 | 14812 ft | 391 kts | 264° |
| 2026-05-04 17:21 | 61.16034 | -153.00045 | 12834 ft | 382 kts | 263° |
| 2026-05-04 17:22 | 61.15957 | -153.05523 | 11810 ft | 379 kts | 264° |
| 2026-05-04 17:22 | 61.15883 | -153.10953 | 10822 ft | 376 kts | 264° |
| 2026-05-04 17:23 | 61.15631 | -153.27311 | 10111 ft | 387 kts | 264° |
| 2026-05-04 17:23 | 61.15541 | -153.32872 | 10025 ft | 386 kts | 264° |
| 2026-05-04 17:23 | 61.15332 | -153.43927 | 9965 ft | 382 kts | 264° |
| 2026-05-04 17:24 | 61.15243 | -153.49413 | 9973 ft | 383 kts | 264° |
| 2026-05-04 17:24 | 61.14958 | -153.65874 | 9992 ft | 379 kts | 264° |
| 2026-05-04 17:25 | 61.14861 | -153.71363 | 9960 ft | 383 kts | 264° |
| 2026-05-04 17:25 | 61.14656 | -153.82342 | 9960 ft | 381 kts | 264° |
| 2026-05-04 17:26 | 61.14438 | -153.93195 | 9948 ft | 380 kts | 264° |
| 2026-05-04 17:26 | 61.14091 | -154.09583 | 9959 ft | 377 kts | 264° |
| 2026-05-04 17:27 | 61.13874 | -154.19788 | 9938 ft | 330 kts | 263° |
| 2026-05-04 17:27 | 61.13671 | -154.28686 | 9920 ft | 290 kts | 262° |
| 2026-05-04 17:28 | 61.13461 | -154.36901 | 9946 ft | 285 kts | 262° |
| 2026-05-04 17:29 | 61.13133 | -154.49198 | 9946 ft | 286 kts | 262° |
| 2026-05-04 17:29 | 61.12799 | -154.61503 | 9939 ft | 285 kts | 262° |
| 2026-05-04 17:30 | 61.12458 | -154.73781 | 9956 ft | 286 kts | 262° |
| 2026-05-04 17:31 | 61.12223 | -154.82005 | 9953 ft | 286 kts | 262° |
| 2026-05-04 17:31 | 61.11861 | -154.94364 | 9942 ft | 288 kts | 262° |
| 2026-05-04 17:32 | 61.11613 | -155.02624 | 9941 ft | 288 kts | 262° |
| 2026-05-04 17:33 | 61.11235 | -155.14989 | 9938 ft | 287 kts | 261° |
| 2026-05-04 17:33 | 61.11104 | -155.19100 | 9934 ft | 287 kts | 262° |
| 2026-05-04 17:34 | 61.10764 | -155.31477 | 9933 ft | 289 kts | 262° |
| 2026-05-04 17:34 | 61.10652 | -155.35628 | 9928 ft | 289 kts | 262° |
| 2026-05-04 17:35 | 61.10306 | -155.48053 | 9916 ft | 290 kts | 262° |
| 2026-05-04 17:35 | 61.10067 | -155.56367 | 9916 ft | 290 kts | 262° |
| 2026-05-04 17:35 | 61.09943 | -155.60585 | 9932 ft | 290 kts | 262° |
| 2026-05-04 17:36 | 61.09822 | -155.64694 | 9910 ft | 291 kts | 262° |
| 2026-05-04 17:36 | 61.09704 | -155.68856 | 9915 ft | 290 kts | 262° |
| 2026-05-04 17:36 | 61.09588 | -155.73005 | 9918 ft | 289 kts | 262° |
| 2026-05-04 17:36 | 61.09471 | -155.77146 | 9922 ft | 289 kts | 262° |
| 2026-05-04 17:37 | 61.09353 | -155.81291 | 9918 ft | 289 kts | 262° |
| 2026-05-04 17:37 | 61.09233 | -155.85438 | 9920 ft | 289 kts | 262° |
| 2026-05-04 17:37 | 61.09112 | -155.89586 | 9928 ft | 289 kts | 262° |
| 2026-05-04 17:37 | 61.08990 | -155.93736 | 9934 ft | 289 kts | 262° |
| 2026-05-04 17:38 | 61.08867 | -155.97888 | 9944 ft | 289 kts | 262° |
| 2026-05-04 17:38 | 61.08742 | -156.02028 | 9940 ft | 289 kts | 262° |
| 2026-05-04 17:38 | 61.08616 | -156.06170 | 9943 ft | 289 kts | 262° |
| 2026-05-04 17:38 | 61.08489 | -156.10316 | 9952 ft | 289 kts | 262° |
| 2026-05-04 17:39 | 61.08230 | -156.18614 | 9954 ft | 290 kts | 262° |
| 2026-05-04 17:39 | 61.08099 | -156.22769 | 9970 ft | 289 kts | 262° |
| 2026-05-04 17:39 | 61.07966 | -156.26913 | 9966 ft | 289 kts | 263° |
| 2026-05-04 17:40 | 61.07831 | -156.31052 | 9973 ft | 288 kts | 262° |
| 2026-05-04 17:40 | 61.07699 | -156.35187 | 9974 ft | 289 kts | 263° |
| 2026-05-04 17:40 | 61.07565 | -156.39347 | 9973 ft | 290 kts | 262° |
| 2026-05-04 17:40 | 61.07425 | -156.43517 | 9970 ft | 291 kts | 263° |
| 2026-05-04 17:41 | 61.07285 | -156.47688 | 9973 ft | 291 kts | 263° |
| 2026-05-04 17:41 | 61.07143 | -156.51862 | 9978 ft | 291 kts | 263° |
| 2026-05-04 17:41 | 61.07000 | -156.56024 | 9973 ft | 291 kts | 263° |
| 2026-05-04 17:41 | 61.06855 | -156.60203 | 9969 ft | 291 kts | 263° |
| 2026-05-04 17:42 | 61.06710 | -156.64368 | 9980 ft | 291 kts | 263° |
| 2026-05-04 17:42 | 61.06563 | -156.68537 | 9984 ft | 291 kts | 263° |
| 2026-05-04 17:42 | 61.06415 | -156.72712 | 9970 ft | 291 kts | 263° |
| 2026-05-04 17:42 | 61.06266 | -156.76875 | 9983 ft | 291 kts | 263° |
| 2026-05-04 17:43 | 61.06115 | -156.81047 | 9982 ft | 291 kts | 263° |
| 2026-05-04 17:43 | 61.05963 | -156.85225 | 9977 ft | 292 kts | 263° |
| 2026-05-04 17:43 | 61.05811 | -156.89391 | 9947 ft | 290 kts | 263° |
| 2026-05-04 17:43 | 61.05659 | -156.93512 | 9711 ft | 286 kts | 263° |
| 2026-05-04 17:44 | 61.05506 | -156.97618 | 9226 ft | 288 kts | 264° |
| 2026-05-04 17:44 | 61.05350 | -157.01755 | 8783 ft | 289 kts | 264° |
| 2026-05-04 17:44 | 61.05193 | -157.05887 | 8387 ft | 288 kts | 265° |
| 2026-05-04 17:44 | 61.05036 | -157.10006 | 8042 ft | 288 kts | 265° |
| 2026-05-04 17:45 | 61.04877 | -157.14131 | 7993 ft | 289 kts | 265° |
| 2026-05-04 17:45 | 61.04719 | -157.18210 | 7985 ft | 289 kts | 265° |
| 2026-05-04 17:45 | 61.04558 | -157.22332 | 7975 ft | 288 kts | 265° |
| 2026-05-04 17:45 | 61.04396 | -157.26435 | 7980 ft | 288 kts | 265° |
| 2026-05-04 17:46 | 61.04233 | -157.30552 | 7985 ft | 288 kts | 265° |
| 2026-05-04 17:46 | 61.04068 | -157.34668 | 7989 ft | 288 kts | 265° |
| 2026-05-04 17:46 | 61.03901 | -157.38800 | 7994 ft | 289 kts | 265° |
| 2026-05-04 17:46 | 61.03733 | -157.42946 | 7980 ft | 290 kts | 265° |
| 2026-05-04 17:47 | 61.03563 | -157.47089 | 7978 ft | 290 kts | 265° |
| 2026-05-04 17:47 | 61.03392 | -157.51231 | 7987 ft | 289 kts | 265° |
| 2026-05-04 17:47 | 61.03218 | -157.55418 | 8041 ft | 302 kts | 265° |
| 2026-05-04 17:47 | 61.03027 | -157.59993 | 8338 ft | 338 kts | 265° |
| 2026-05-04 17:48 | 61.02815 | -157.64990 | 9008 ft | 356 kts | 264° |
| 2026-05-04 17:48 | 61.02597 | -157.70116 | 10109 ft | 360 kts | 264° |
| 2026-05-04 17:48 | 61.02375 | -157.75276 | 11180 ft | 362 kts | 263° |
| 2026-05-04 17:48 | 61.02149 | -157.80476 | 12187 ft | 366 kts | 263° |
| 2026-05-04 17:49 | 61.01916 | -157.85782 | 12585 ft | 373 kts | 263° |
| 2026-05-04 17:49 | 61.01686 | -157.90996 | 12502 ft | 357 kts | 263° |
| 2026-05-04 17:49 | 61.01466 | -157.95983 | 12391 ft | 339 kts | 263° |
| 2026-05-04 17:49 | 61.01256 | -158.00702 | 12267 ft | 323 kts | 262° |
| 2026-05-04 17:50 | 61.01054 | -158.05194 | 12183 ft | 308 kts | 262° |
| 2026-05-04 17:50 | 61.00858 | -158.09508 | 12019 ft | 297 kts | 262° |
| 2026-05-04 17:50 | 61.00664 | -158.13721 | 11661 ft | 295 kts | 263° |
| 2026-05-04 17:50 | 61.00468 | -158.17925 | 11232 ft | 294 kts | 263° |
| 2026-05-04 17:51 | 61.00271 | -158.22120 | 10830 ft | 294 kts | 263° |
| 2026-05-04 17:51 | 61.00073 | -158.26306 | 10451 ft | 293 kts | 263° |
| 2026-05-04 17:51 | 60.99875 | -158.30480 | 10066 ft | 292 kts | 264° |
| 2026-05-04 17:51 | 60.99677 | -158.34642 | 9684 ft | 291 kts | 264° |
| 2026-05-04 17:52 | 60.99479 | -158.38778 | 9298 ft | 290 kts | 264° |
| 2026-05-04 17:52 | 60.99280 | -158.42903 | 8912 ft | 288 kts | 264° |
| 2026-05-04 17:52 | 60.99082 | -158.46998 | 8531 ft | 287 kts | 264° |
| 2026-05-04 17:52 | 60.98950 | -158.49701 | 8259 ft | 286 kts | 264° |
| 2026-05-04 17:53 | 60.98750 | -158.53778 | 8030 ft | 286 kts | 264° |
| 2026-05-04 17:53 | 60.98549 | -158.57867 | 8008 ft | 287 kts | 264° |
| 2026-05-04 17:53 | 60.98346 | -158.61953 | 8001 ft | 286 kts | 264° |
| 2026-05-04 17:53 | 60.98143 | -158.66025 | 7998 ft | 286 kts | 264° |
| 2026-05-04 17:54 | 60.97939 | -158.70092 | 8003 ft | 286 kts | 264° |
| 2026-05-04 17:54 | 60.97733 | -158.74165 | 8006 ft | 286 kts | 264° |
| 2026-05-04 17:54 | 60.97526 | -158.78235 | 8011 ft | 286 kts | 264° |
| 2026-05-04 17:54 | 60.97318 | -158.82310 | 8008 ft | 286 kts | 264° |
| 2026-05-04 17:55 | 60.97107 | -158.86388 | 8015 ft | 286 kts | 264° |
| 2026-05-04 17:55 | 60.96897 | -158.90449 | 8014 ft | 286 kts | 264° |
| 2026-05-04 17:55 | 60.96685 | -158.94515 | 8013 ft | 285 kts | 264° |
| 2026-05-04 17:55 | 60.96473 | -158.98579 | 8007 ft | 286 kts | 264° |
| 2026-05-04 17:56 | 60.96259 | -159.02641 | 8018 ft | 285 kts | 264° |
| 2026-05-04 17:56 | 60.96044 | -159.06703 | 8009 ft | 286 kts | 264° |
| 2026-05-04 17:56 | 60.95827 | -159.10768 | 8016 ft | 286 kts | 264° |
| 2026-05-04 17:56 | 60.95609 | -159.14836 | 8016 ft | 286 kts | 264° |
| 2026-05-04 17:57 | 60.95390 | -159.18908 | 8012 ft | 286 kts | 264° |
| 2026-05-04 17:57 | 60.95169 | -159.22986 | 8010 ft | 287 kts | 264° |
| 2026-05-04 17:57 | 60.94947 | -159.27054 | 8011 ft | 287 kts | 264° |
| 2026-05-04 17:57 | 60.94723 | -159.31139 | 8014 ft | 287 kts | 264° |
| 2026-05-04 17:58 | 60.94498 | -159.35221 | 8010 ft | 287 kts | 264° |
| 2026-05-04 17:58 | 60.94272 | -159.39300 | 8007 ft | 287 kts | 264° |
| 2026-05-04 17:58 | 60.94047 | -159.43330 | 8006 ft | 287 kts | 264° |
| 2026-05-04 17:58 | 60.93818 | -159.47407 | 8009 ft | 287 kts | 264° |
| 2026-05-04 17:59 | 60.93588 | -159.51486 | 8010 ft | 287 kts | 264° |
| 2026-05-04 17:59 | 60.93357 | -159.55564 | 8001 ft | 287 kts | 264° |
| 2026-05-04 17:59 | 60.92899 | -159.63571 | 7989 ft | 271 kts | 263° |
| 2026-05-04 18:00 | 60.92682 | -159.67322 | 7937 ft | 258 kts | 264° |
| 2026-05-04 18:00 | 60.92474 | -159.70910 | 7844 ft | 248 kts | 264° |
| 2026-05-04 18:00 | 60.92273 | -159.74370 | 7726 ft | 240 kts | 264° |
| 2026-05-04 18:00 | 60.92077 | -159.77727 | 7584 ft | 234 kts | 264° |
| 2026-05-04 18:01 | 60.91885 | -159.81003 | 7415 ft | 229 kts | 264° |
| 2026-05-04 18:01 | 60.91696 | -159.84223 | 7236 ft | 225 kts | 264° |
| 2026-05-04 18:01 | 60.91506 | -159.87448 | 7086 ft | 242 kts | 264° |
| 2026-05-04 18:02 | 60.91048 | -159.95172 | 6994 ft | 281 kts | 263° |
| 2026-05-04 18:02 | 60.90808 | -159.99163 | 6997 ft | 283 kts | 263° |
| 2026-05-04 18:02 | 60.90565 | -160.03186 | 6989 ft | 284 kts | 263° |
| 2026-05-04 18:02 | 60.90321 | -160.07207 | 6988 ft | 283 kts | 263° |
| 2026-05-04 18:03 | 60.90077 | -160.11210 | 6989 ft | 282 kts | 263° |
| 2026-05-04 18:03 | 60.89833 | -160.15196 | 6982 ft | 281 kts | 263° |
| 2026-05-04 18:03 | 60.89589 | -160.19166 | 6993 ft | 280 kts | 263° |
| 2026-05-04 18:03 | 60.89340 | -160.23197 | 7342 ft | 290 kts | 263° |
| 2026-05-04 18:04 | 60.89085 | -160.27294 | 8715 ft | 291 kts | 263° |
| 2026-05-04 18:04 | 60.88824 | -160.31475 | 8967 ft | 296 kts | 263° |
| 2026-05-04 18:04 | 60.88305 | -160.39759 | 8997 ft | 289 kts | 263° |
| 2026-05-04 18:05 | 60.88046 | -160.43835 | 9000 ft | 286 kts | 263° |
| 2026-05-04 18:05 | 60.87789 | -160.47855 | 9004 ft | 284 kts | 263° |
| 2026-05-04 18:05 | 60.87530 | -160.51883 | 9014 ft | 285 kts | 263° |
| 2026-05-04 18:05 | 60.87265 | -160.55986 | 9113 ft | 301 kts | 263° |
| 2026-05-04 18:06 | 60.86650 | -160.65465 | 10208 ft | 356 kts | 263° |
| 2026-05-04 18:06 | 60.86319 | -160.70515 | 11391 ft | 358 kts | 262° |
| 2026-05-04 18:06 | 60.85983 | -160.75592 | 12576 ft | 361 kts | 262° |
| 2026-05-04 18:07 | 60.85641 | -160.80751 | 13657 ft | 367 kts | 261° |
| 2026-05-04 18:07 | 60.85291 | -160.85977 | 14647 ft | 371 kts | 261° |
| 2026-05-04 18:07 | 60.84939 | -160.91226 | 15678 ft | 373 kts | 260° |
| 2026-05-04 18:07 | 60.84580 | -160.96532 | 16599 ft | 378 kts | 259° |
| 2026-05-04 18:08 | 60.84216 | -161.01891 | 17569 ft | 381 kts | 259° |
| 2026-05-04 18:08 | 60.83846 | -161.07302 | 18499 ft | 385 kts | 258° |
| 2026-05-04 18:08 | 60.83470 | -161.12769 | 19271 ft | 390 kts | 258° |
| 2026-05-04 18:08 | 60.83088 | -161.18296 | 20029 ft | 394 kts | 258° |
| 2026-05-04 18:09 | 60.82305 | -161.29540 | 21552 ft | 402 kts | 257° |
| 2026-05-04 18:09 | 60.81502 | -161.40915 | 23049 ft | 410 kts | 257° |
| 2026-05-04 18:10 | 60.81087 | -161.46720 | 23754 ft | 414 kts | 256° |
| 2026-05-04 18:10 | 60.80665 | -161.52577 | 24346 ft | 417 kts | 256° |
| 2026-05-04 18:10 | 60.80238 | -161.58486 | 24922 ft | 421 kts | 256° |
| 2026-05-04 18:10 | 60.79807 | -161.64440 | 25487 ft | 425 kts | 256° |
| 2026-05-04 18:11 | 60.79367 | -161.70456 | 26049 ft | 429 kts | 256° |
| 2026-05-04 18:11 | 60.78854 | -161.76474 | 26598 ft | 429 kts | 250° |
| 2026-05-04 18:11 | 60.77915 | -161.82238 | 27110 ft | 426 kts | 242° |
| 2026-05-04 18:11 | 60.76608 | -161.87655 | 27638 ft | 424 kts | 234° |
| 2026-05-04 18:12 | 60.74935 | -161.92589 | 28128 ft | 423 kts | 229° |
| 2026-05-04 18:12 | 60.73152 | -161.97423 | 28608 ft | 426 kts | 228° |
| 2026-05-04 18:12 | 60.71358 | -162.02270 | 29061 ft | 429 kts | 229° |
| 2026-05-04 18:12 | 60.69860 | -162.06367 | 29411 ft | 432 kts | 229° |
| 2026-05-04 18:13 | 60.68059 | -162.11335 | 29867 ft | 433 kts | 229° |
| 2026-05-04 18:13 | 60.66282 | -162.16251 | 30365 ft | 432 kts | 229° |
| 2026-05-04 18:13 | 60.62701 | -162.26094 | 31249 ft | 431 kts | 229° |
| 2026-05-04 18:14 | 60.60909 | -162.30995 | 31656 ft | 431 kts | 229° |
| 2026-05-04 18:14 | 60.59118 | -162.35882 | 32070 ft | 431 kts | 229° |
| 2026-05-04 18:14 | 60.57322 | -162.40776 | 32494 ft | 431 kts | 229° |
| 2026-05-04 18:15 | 60.53732 | -162.50531 | 33259 ft | 432 kts | 229° |
| 2026-05-04 18:15 | 60.50127 | -162.60288 | 34000 ft | 432 kts | 229° |
| 2026-05-04 18:15 | 60.48318 | -162.65171 | 34286 ft | 433 kts | 229° |
| 2026-05-04 18:16 | 60.46503 | -162.70058 | 34531 ft | 435 kts | 229° |
| 2026-05-04 18:16 | 60.44703 | -162.74896 | 34769 ft | 437 kts | 229° |
| 2026-05-04 18:16 | 60.42872 | -162.79809 | 35017 ft | 438 kts | 230° |
| 2026-05-04 18:17 | 60.39185 | -162.89671 | 35505 ft | 440 kts | 230° |
| 2026-05-04 18:17 | 60.37331 | -162.94606 | 35753 ft | 441 kts | 230° |
| 2026-05-04 18:17 | 60.33598 | -163.04504 | 36235 ft | 444 kts | 230° |
| 2026-05-04 18:18 | 60.31724 | -163.09459 | 36480 ft | 445 kts | 230° |
| 2026-05-04 18:18 | 60.29843 | -163.14423 | 36718 ft | 446 kts | 230° |
| 2026-05-04 18:18 | 60.27954 | -163.19397 | 36955 ft | 447 kts | 231° |
| 2026-05-04 18:18 | 60.26061 | -163.24376 | 37196 ft | 448 kts | 231° |
| 2026-05-04 18:19 | 60.22265 | -163.34326 | 37729 ft | 448 kts | 231° |
| 2026-05-04 18:19 | 60.20362 | -163.39299 | 37986 ft | 449 kts | 231° |
| 2026-05-04 18:19 | 60.18455 | -163.44271 | 38242 ft | 449 kts | 231° |
| 2026-05-04 18:20 | 60.16544 | -163.49242 | 38477 ft | 450 kts | 231° |
| 2026-05-04 18:20 | 60.14630 | -163.54212 | 38762 ft | 450 kts | 231° |
| 2026-05-04 18:20 | 60.12715 | -163.59170 | 38953 ft | 450 kts | 231° |
| 2026-05-04 18:20 | 60.10794 | -163.64135 | 39163 ft | 450 kts | 231° |
| 2026-05-04 18:21 | 60.08875 | -163.69084 | 39418 ft | 449 kts | 231° |
| 2026-05-04 18:21 | 60.06959 | -163.74017 | 39643 ft | 449 kts | 231° |
| 2026-05-04 18:21 | 60.05040 | -163.78946 | 39899 ft | 448 kts | 231° |
| 2026-05-04 18:21 | 60.03160 | -163.83767 | 40002 ft | 442 kts | 231° |
| 2026-05-04 18:22 | 59.99365 | -163.93465 | 40070 ft | 447 kts | 231° |
| 2026-05-04 18:22 | 59.95516 | -164.03258 | 40082 ft | 450 kts | 231° |
| 2026-05-04 18:23 | 59.91612 | -164.13148 | 40083 ft | 456 kts | 231° |
| 2026-05-04 18:23 | 59.87668 | -164.23100 | 40072 ft | 458 kts | 231° |
| 2026-05-04 18:24 | 59.83724 | -164.33010 | 40066 ft | 454 kts | 231° |
| 2026-05-04 18:24 | 59.79805 | -164.42814 | 40065 ft | 452 kts | 231° |
| 2026-05-04 18:25 | 59.75900 | -164.52542 | 40064 ft | 450 kts | 231° |
| 2026-05-04 18:25 | 59.71997 | -164.62226 | 40054 ft | 447 kts | 231° |
| 2026-05-04 18:26 | 59.68096 | -164.71860 | 40064 ft | 450 kts | 230° |
| 2026-05-04 18:26 | 59.64174 | -164.81510 | 40054 ft | 449 kts | 230° |
| 2026-05-04 18:27 | 59.60247 | -164.91134 | 40060 ft | 450 kts | 230° |
| 2026-05-04 18:27 | 59.56289 | -165.00790 | 40063 ft | 455 kts | 230° |
| 2026-05-04 18:28 | 59.52285 | -165.10518 | 40066 ft | 460 kts | 230° |
| 2026-05-04 18:28 | 59.48221 | -165.20352 | 40069 ft | 465 kts | 230° |
| 2026-05-04 18:29 | 59.44152 | -165.30157 | 40059 ft | 467 kts | 230° |
| 2026-05-04 18:29 | 59.40038 | -165.40029 | 40057 ft | 466 kts | 230° |
| 2026-05-04 18:30 | 59.33893 | -165.54697 | 40056 ft | 460 kts | 230° |
| 2026-05-04 18:31 | 59.29835 | -165.64330 | 40060 ft | 457 kts | 230° |
| 2026-05-04 18:31 | 59.25785 | -165.73907 | 40065 ft | 457 kts | 230° |
| 2026-05-04 18:32 | 59.21725 | -165.83468 | 40071 ft | 458 kts | 230° |
| 2026-05-04 18:32 | 59.17644 | -165.93039 | 40073 ft | 460 kts | 230° |
| 2026-05-04 18:33 | 59.13538 | -166.02628 | 40078 ft | 462 kts | 230° |
| 2026-05-04 18:33 | 59.09406 | -166.12239 | 40075 ft | 463 kts | 230° |
| 2026-05-04 18:34 | 59.05257 | -166.21850 | 40075 ft | 465 kts | 230° |
| 2026-05-04 18:34 | 59.01087 | -166.31468 | 40078 ft | 466 kts | 230° |
| 2026-05-04 18:35 | 58.96905 | -166.41077 | 40076 ft | 467 kts | 230° |
| 2026-05-04 18:35 | 58.92739 | -166.50607 | 40080 ft | 467 kts | 230° |
| 2026-05-04 18:36 | 58.88531 | -166.60196 | 40082 ft | 468 kts | 230° |
| 2026-05-04 18:36 | 58.84313 | -166.69766 | 40085 ft | 468 kts | 230° |
| 2026-05-04 18:37 | 58.80082 | -166.79327 | 40087 ft | 469 kts | 230° |
| 2026-05-04 18:37 | 58.75837 | -166.88882 | 40087 ft | 469 kts | 230° |
| 2026-05-04 18:38 | 58.71584 | -166.98412 | 40091 ft | 470 kts | 230° |
| 2026-05-04 18:38 | 58.67316 | -167.07941 | 40095 ft | 470 kts | 229° |
| 2026-05-04 18:39 | 58.63038 | -167.17450 | 40094 ft | 470 kts | 229° |
| 2026-05-04 18:39 | 58.58753 | -167.26938 | 40095 ft | 471 kts | 229° |
| 2026-05-04 18:40 | 58.54459 | -167.36405 | 40094 ft | 471 kts | 229° |
| 2026-05-04 18:40 | 58.50156 | -167.45856 | 40097 ft | 471 kts | 229° |
| 2026-05-04 18:41 | 58.45843 | -167.55288 | 40099 ft | 471 kts | 229° |
| 2026-05-04 18:41 | 58.41523 | -167.64698 | 40100 ft | 471 kts | 229° |
| 2026-05-04 18:42 | 58.37198 | -167.74081 | 40103 ft | 471 kts | 229° |
| 2026-05-04 18:42 | 58.32860 | -167.83454 | 40108 ft | 472 kts | 229° |
| 2026-05-04 18:43 | 58.28515 | -167.92805 | 40107 ft | 472 kts | 229° |
| 2026-05-04 18:43 | 58.24157 | -168.02145 | 40108 ft | 472 kts | 229° |
| 2026-05-04 18:44 | 58.19823 | -168.11398 | 40109 ft | 473 kts | 229° |
| 2026-05-04 18:44 | 58.15446 | -168.20704 | 40112 ft | 473 kts | 229° |
| 2026-05-04 18:45 | 58.11064 | -168.29985 | 40117 ft | 473 kts | 229° |
| 2026-05-04 18:45 | 58.06669 | -168.39256 | 40113 ft | 473 kts | 229° |
| 2026-05-04 18:46 | 58.02269 | -168.48501 | 40114 ft | 474 kts | 229° |
| 2026-05-04 18:46 | 57.98601 | -168.56179 | 40116 ft | 474 kts | 229° |
| 2026-05-04 18:47 | 57.94185 | -168.65388 | 40121 ft | 474 kts | 229° |
| 2026-05-04 18:47 | 57.89755 | -168.74592 | 40121 ft | 474 kts | 229° |
| 2026-05-04 18:48 | 57.85319 | -168.83773 | 40126 ft | 475 kts | 229° |
| 2026-05-04 18:48 | 57.80872 | -168.92937 | 40125 ft | 475 kts | 229° |
| 2026-05-04 18:49 | 57.76420 | -169.02077 | 40126 ft | 475 kts | 229° |
| 2026-05-04 18:49 | 57.71956 | -169.11204 | 40134 ft | 475 kts | 229° |
| 2026-05-04 18:50 | 57.67488 | -169.20306 | 40130 ft | 475 kts | 229° |
| 2026-05-04 18:50 | 57.63008 | -169.29395 | 40130 ft | 475 kts | 229° |
| 2026-05-04 18:51 | 57.58524 | -169.38458 | 40132 ft | 476 kts | 229° |
| 2026-05-04 18:51 | 57.54027 | -169.47511 | 40134 ft | 476 kts | 228° |
| 2026-05-04 18:52 | 57.49524 | -169.56540 | 40139 ft | 476 kts | 228° |
| 2026-05-04 18:52 | 57.45012 | -169.65555 | 40137 ft | 476 kts | 228° |
| 2026-05-04 18:53 | 57.40496 | -169.74542 | 40138 ft | 476 kts | 228° |
| 2026-05-04 18:53 | 57.35969 | -169.83521 | 40149 ft | 476 kts | 228° |
| 2026-05-04 18:54 | 57.31438 | -169.92472 | 40164 ft | 476 kts | 229° |
| 2026-05-04 18:54 | 57.27701 | -170.02479 | 40168 ft | 472 kts | 245° |
| 2026-05-04 18:55 | 57.25479 | -170.13750 | 40173 ft | 470 kts | 254° |
| 2026-05-04 18:55 | 57.22559 | -170.31039 | 40173 ft | 470 kts | 254° |
| 2026-05-04 18:56 | 57.20567 | -170.42533 | 40174 ft | 470 kts | 254° |
| 2026-05-04 18:56 | 57.18541 | -170.54002 | 40169 ft | 471 kts | 253° |
| 2026-05-04 18:57 | 57.16495 | -170.65454 | 40167 ft | 471 kts | 253° |
| 2026-05-04 18:57 | 57.14436 | -170.76905 | 40164 ft | 471 kts | 253° |
| 2026-05-04 18:58 | 57.12370 | -170.88335 | 40159 ft | 471 kts | 253° |
| 2026-05-04 18:58 | 57.10294 | -170.99758 | 40161 ft | 471 kts | 253° |
| 2026-05-04 18:59 | 57.08207 | -171.11171 | 40162 ft | 471 kts | 253° |
| 2026-05-04 18:59 | 57.06106 | -171.22583 | 40167 ft | 471 kts | 253° |
| 2026-05-04 19:00 | 57.03997 | -171.33977 | 40167 ft | 471 kts | 253° |
| 2026-05-04 19:00 | 57.01876 | -171.45367 | 40168 ft | 471 kts | 252° |
| 2026-05-04 19:01 | 56.99745 | -171.56738 | 40173 ft | 472 kts | 253° |
| 2026-05-04 19:01 | 56.97616 | -171.68032 | 40175 ft | 472 kts | 252° |
| 2026-05-04 19:02 | 56.95464 | -171.79380 | 40176 ft | 472 kts | 252° |
| 2026-05-04 19:02 | 56.93301 | -171.90722 | 40174 ft | 471 kts | 252° |
| 2026-05-04 19:03 | 56.91129 | -172.02039 | 40174 ft | 471 kts | 252° |
| 2026-05-04 19:03 | 56.88947 | -172.13347 | 40177 ft | 471 kts | 252° |
| 2026-05-04 19:04 | 56.86755 | -172.24636 | 40180 ft | 471 kts | 252° |
| 2026-05-04 19:04 | 56.84555 | -172.35907 | 40177 ft | 471 kts | 252° |
| 2026-05-04 19:05 | 56.82346 | -172.47155 | 40176 ft | 471 kts | 252° |
| 2026-05-04 19:05 | 56.80126 | -172.58395 | 40180 ft | 471 kts | 252° |
| 2026-05-04 19:06 | 56.77899 | -172.69607 | 40187 ft | 470 kts | 252° |
| 2026-05-04 19:06 | 56.75660 | -172.80812 | 40181 ft | 470 kts | 252° |
| 2026-05-04 19:07 | 56.73412 | -172.92002 | 40187 ft | 470 kts | 252° |
| 2026-05-04 19:07 | 56.71155 | -173.03169 | 40187 ft | 470 kts | 252° |
| 2026-05-04 19:08 | 56.68889 | -173.14322 | 40187 ft | 470 kts | 252° |
| 2026-05-04 19:08 | 56.66616 | -173.25447 | 40184 ft | 467 kts | 252° |
| 2026-05-04 19:09 | 56.64359 | -173.36424 | 40189 ft | 462 kts | 252° |
| 2026-05-04 19:09 | 56.62103 | -173.47346 | 40192 ft | 461 kts | 251° |
| 2026-05-04 19:10 | 56.59860 | -173.58150 | 40195 ft | 460 kts | 251° |
| 2026-05-04 19:10 | 56.57591 | -173.69019 | 40194 ft | 461 kts | 251° |
| 2026-05-04 19:11 | 56.55310 | -173.79882 | 40196 ft | 461 kts | 251° |
| 2026-05-04 19:11 | 56.53017 | -173.90747 | 40197 ft | 462 kts | 251° |
| 2026-05-04 19:12 | 56.49552 | -174.07053 | 40198 ft | 463 kts | 251° |
| 2026-05-04 19:13 | 56.47227 | -174.17925 | 40201 ft | 464 kts | 251° |
| 2026-05-04 19:13 | 56.44890 | -174.28794 | 40200 ft | 464 kts | 251° |
| 2026-05-04 19:14 | 56.42543 | -174.39651 | 40203 ft | 464 kts | 251° |
| 2026-05-04 19:14 | 56.40185 | -174.50500 | 40203 ft | 464 kts | 251° |
| 2026-05-04 19:15 | 56.37820 | -174.61327 | 40204 ft | 464 kts | 251° |
| 2026-05-04 19:15 | 56.35446 | -174.72135 | 40205 ft | 463 kts | 251° |
| 2026-05-04 19:16 | 56.33064 | -174.82925 | 40212 ft | 463 kts | 251° |
| 2026-05-04 19:16 | 56.30673 | -174.93704 | 40209 ft | 463 kts | 251° |
| 2026-05-04 19:17 | 56.28273 | -175.04461 | 40207 ft | 463 kts | 250° |
| 2026-05-04 19:17 | 56.25882 | -175.15126 | 40212 ft | 463 kts | 250° |
| 2026-05-04 19:18 | 56.23468 | -175.25843 | 40215 ft | 462 kts | 250° |
| 2026-05-04 19:18 | 56.21043 | -175.36549 | 40215 ft | 462 kts | 250° |
| 2026-05-04 19:19 | 56.18610 | -175.47238 | 40214 ft | 462 kts | 250° |
| 2026-05-04 19:19 | 56.16169 | -175.57905 | 40213 ft | 462 kts | 250° |
| 2026-05-04 19:20 | 56.13718 | -175.68567 | 40213 ft | 462 kts | 250° |
| 2026-05-04 19:20 | 56.11259 | -175.79207 | 40219 ft | 462 kts | 250° |
| 2026-05-04 19:21 | 56.08791 | -175.89834 | 40222 ft | 462 kts | 250° |
| 2026-05-04 19:21 | 56.06313 | -176.00454 | 40217 ft | 462 kts | 250° |
| 2026-05-04 19:22 | 56.03826 | -176.11055 | 40221 ft | 462 kts | 250° |
| 2026-05-04 19:22 | 56.01330 | -176.21646 | 40223 ft | 462 kts | 250° |
| 2026-05-04 19:23 | 55.98824 | -176.32225 | 40222 ft | 462 kts | 249° |
| 2026-05-04 19:23 | 55.96309 | -176.42788 | 40223 ft | 462 kts | 249° |
| 2026-05-04 19:24 | 55.93787 | -176.53334 | 40224 ft | 462 kts | 249° |
| 2026-05-04 19:24 | 55.91253 | -176.63872 | 40223 ft | 462 kts | 249° |
| 2026-05-04 19:25 | 55.88711 | -176.74397 | 40228 ft | 462 kts | 249° |
| 2026-05-04 19:25 | 55.86161 | -176.84907 | 40222 ft | 462 kts | 249° |
| 2026-05-04 19:26 | 55.83618 | -176.95333 | 40230 ft | 462 kts | 249° |
| 2026-05-04 19:26 | 55.81049 | -177.05816 | 40225 ft | 462 kts | 249° |
| 2026-05-04 19:27 | 55.78469 | -177.16294 | 40234 ft | 462 kts | 249° |
| 2026-05-04 19:27 | 55.75882 | -177.26750 | 40223 ft | 462 kts | 249° |
| 2026-05-04 19:28 | 55.73286 | -177.37195 | 40226 ft | 462 kts | 249° |
| 2026-05-04 19:28 | 55.70680 | -177.47626 | 40227 ft | 462 kts | 249° |
| 2026-05-04 19:29 | 55.68067 | -177.58042 | 40229 ft | 462 kts | 249° |
| 2026-05-04 19:29 | 55.65444 | -177.68445 | 40225 ft | 462 kts | 248° |
| 2026-05-04 19:30 | 55.62813 | -177.78833 | 40226 ft | 462 kts | 248° |
| 2026-05-04 19:30 | 55.60172 | -177.89207 | 40227 ft | 462 kts | 248° |
| 2026-05-04 19:31 | 55.57523 | -177.99567 | 40228 ft | 462 kts | 248° |
| 2026-05-04 19:31 | 55.54863 | -178.09924 | 40229 ft | 463 kts | 248° |
| 2026-05-04 19:32 | 55.52216 | -178.20183 | 40230 ft | 462 kts | 248° |
| 2026-05-04 19:32 | 55.49540 | -178.30503 | 40229 ft | 463 kts | 248° |
| 2026-05-04 19:33 | 55.46855 | -178.40814 | 40229 ft | 463 kts | 248° |
| 2026-05-04 19:33 | 55.44161 | -178.51111 | 40226 ft | 463 kts | 248° |
| 2026-05-04 19:34 | 55.41461 | -178.61384 | 40230 ft | 462 kts | 248° |
| 2026-05-04 19:34 | 55.38752 | -178.71646 | 40231 ft | 462 kts | 248° |
| 2026-05-04 19:35 | 55.36034 | -178.81892 | 40233 ft | 462 kts | 248° |
| 2026-05-04 19:35 | 55.33307 | -178.92128 | 40227 ft | 462 kts | 248° |
| 2026-05-04 19:36 | 55.30571 | -179.02351 | 40227 ft | 462 kts | 247° |
| 2026-05-04 19:36 | 55.27828 | -179.12554 | 40226 ft | 462 kts | 247° |
| 2026-05-04 19:37 | 55.25077 | -179.22741 | 40229 ft | 462 kts | 247° |
| 2026-05-04 19:37 | 55.22317 | -179.32916 | 40230 ft | 462 kts | 247° |
| 2026-05-04 19:38 | 55.19548 | -179.43078 | 40227 ft | 462 kts | 247° |
| 2026-05-04 19:38 | 55.16772 | -179.53220 | 40230 ft | 462 kts | 247° |
| 2026-05-04 19:39 | 55.14462 | -179.61630 | 40224 ft | 462 kts | 247° |
| 2026-05-04 19:39 | 55.11671 | -179.71745 | 40226 ft | 462 kts | 247° |
| 2026-05-04 19:40 | 55.08874 | -179.81838 | 40225 ft | 462 kts | 247° |
| 2026-05-04 19:40 | 55.06067 | -179.91923 | 40223 ft | 462 kts | 246° |
| 2026-05-04 19:41 | 55.03255 | 179.98018 | 40227 ft | 462 kts | 246° |
| 2026-05-04 19:41 | 55.00434 | 179.87967 | 40226 ft | 462 kts | 246° |
| 2026-05-04 19:42 | 54.97605 | 179.77935 | 40221 ft | 461 kts | 246° |
| 2026-05-04 19:42 | 54.94769 | 179.67921 | 40217 ft | 461 kts | 246° |
| 2026-05-04 19:43 | 54.91925 | 179.57921 | 40219 ft | 461 kts | 246° |
| 2026-05-04 19:43 | 54.89074 | 179.47942 | 40216 ft | 461 kts | 246° |
| 2026-05-04 19:44 | 54.86217 | 179.37981 | 40220 ft | 461 kts | 246° |
| 2026-05-04 19:44 | 54.83350 | 179.28029 | 40215 ft | 461 kts | 246° |
| 2026-05-04 19:45 | 54.80497 | 179.18169 | 40214 ft | 461 kts | 246° |
| 2026-05-04 19:45 | 54.77617 | 179.08259 | 40217 ft | 460 kts | 246° |
| 2026-05-04 19:46 | 54.74730 | 178.98362 | 40216 ft | 460 kts | 246° |
| 2026-05-04 19:46 | 54.71837 | 178.88489 | 40217 ft | 460 kts | 246° |
| 2026-05-04 19:47 | 54.68935 | 178.78625 | 40215 ft | 460 kts | 246° |
| 2026-05-04 19:47 | 54.66026 | 178.68781 | 40205 ft | 460 kts | 246° |
| 2026-05-04 19:48 | 54.63110 | 178.58951 | 40200 ft | 460 kts | 246° |
| 2026-05-04 19:48 | 54.60188 | 178.49145 | 40208 ft | 460 kts | 246° |
| 2026-05-04 19:49 | 54.57261 | 178.39361 | 40206 ft | 459 kts | 246° |
| 2026-05-04 19:49 | 54.54323 | 178.29582 | 40205 ft | 459 kts | 245° |
| 2026-05-04 19:50 | 54.51382 | 178.19832 | 40203 ft | 459 kts | 245° |
| 2026-05-04 19:50 | 54.48454 | 178.10163 | 40205 ft | 459 kts | 245° |
| 2026-05-04 19:51 | 54.45499 | 178.00447 | 40200 ft | 458 kts | 245° |
| 2026-05-04 19:51 | 54.42537 | 177.90747 | 40199 ft | 458 kts | 245° |
| 2026-05-04 19:52 | 54.39567 | 177.81062 | 40198 ft | 458 kts | 245° |
| 2026-05-04 19:52 | 54.36594 | 177.71403 | 40195 ft | 458 kts | 245° |
| 2026-05-04 19:53 | 54.33612 | 177.61755 | 40195 ft | 458 kts | 245° |
| 2026-05-04 19:53 | 54.30623 | 177.52124 | 40194 ft | 457 kts | 245° |
| 2026-05-04 19:54 | 54.27629 | 177.42514 | 40192 ft | 457 kts | 245° |
| 2026-05-04 19:54 | 54.24630 | 177.32930 | 40191 ft | 457 kts | 245° |
| 2026-05-04 19:55 | 54.21626 | 177.23364 | 40189 ft | 457 kts | 245° |
| 2026-05-04 19:55 | 54.18634 | 177.13875 | 40186 ft | 456 kts | 245° |
| 2026-05-04 19:56 | 54.15617 | 177.04345 | 40192 ft | 456 kts | 245° |
| 2026-05-04 19:56 | 54.12595 | 176.94837 | 40188 ft | 456 kts | 245° |
| 2026-05-04 19:57 | 54.09567 | 176.85348 | 40181 ft | 456 kts | 245° |
| 2026-05-04 19:57 | 54.06532 | 176.75872 | 40176 ft | 456 kts | 245° |
| 2026-05-04 19:58 | 54.03489 | 176.66410 | 40175 ft | 455 kts | 245° |
| 2026-05-04 19:58 | 54.00443 | 176.56976 | 40184 ft | 455 kts | 245° |
| 2026-05-04 19:59 | 53.97390 | 176.47556 | 40175 ft | 455 kts | 245° |
| 2026-05-04 19:59 | 53.94333 | 176.38161 | 40176 ft | 455 kts | 245° |
| 2026-05-04 20:00 | 53.91266 | 176.28770 | 40172 ft | 454 kts | 245° |
| 2026-05-04 20:00 | 53.88196 | 176.19405 | 40168 ft | 454 kts | 245° |
| 2026-05-04 20:01 | 53.85121 | 176.10063 | 40168 ft | 454 kts | 245° |
| 2026-05-04 20:01 | 53.82036 | 176.00727 | 40166 ft | 454 kts | 245° |
| 2026-05-04 20:02 | 53.78949 | 175.91417 | 40169 ft | 454 kts | 245° |
| 2026-05-04 20:02 | 53.75852 | 175.82116 | 40166 ft | 454 kts | 244° |
| 2026-05-04 20:03 | 53.72749 | 175.72832 | 40165 ft | 454 kts | 244° |
| 2026-05-04 20:03 | 53.69639 | 175.63561 | 40160 ft | 454 kts | 244° |
| 2026-05-04 20:04 | 53.66523 | 175.54307 | 40159 ft | 454 kts | 244° |
| 2026-05-04 20:04 | 53.63402 | 175.45071 | 40153 ft | 453 kts | 244° |
| 2026-05-04 20:05 | 53.60270 | 175.35842 | 40155 ft | 453 kts | 244° |
| 2026-05-04 20:05 | 53.57142 | 175.26656 | 40147 ft | 447 kts | 244° |
| 2026-05-04 20:05 | 53.55621 | 175.22221 | 40135 ft | 428 kts | 244° |
| 2026-05-04 20:06 | 53.54164 | 175.17984 | 40131 ft | 410 kts | 244° |
| 2026-05-04 20:06 | 53.52766 | 175.13919 | 40125 ft | 394 kts | 245° |
| 2026-05-04 20:06 | 53.51422 | 175.10011 | 40130 ft | 379 kts | 245° |
| 2026-05-04 20:06 | 53.50125 | 175.06242 | 40131 ft | 366 kts | 245° |
| 2026-05-04 20:07 | 53.48861 | 175.02565 | 40144 ft | 365 kts | 245° |
| 2026-05-04 20:07 | 53.47579 | 174.98817 | 40158 ft | 376 kts | 245° |
| 2026-05-04 20:07 | 53.46260 | 174.94969 | 40160 ft | 385 kts | 245° |
| 2026-05-04 20:08 | 53.43558 | 174.87141 | 40136 ft | 387 kts | 245° |
| 2026-05-04 20:08 | 53.40881 | 174.79444 | 40134 ft | 383 kts | 245° |
| 2026-05-04 20:09 | 53.38207 | 174.71775 | 40133 ft | 379 kts | 245° |
| 2026-05-04 20:09 | 53.35554 | 174.64183 | 40139 ft | 377 kts | 245° |
| 2026-05-04 20:10 | 53.32911 | 174.56640 | 40139 ft | 375 kts | 245° |
| 2026-05-04 20:10 | 53.30272 | 174.49131 | 40142 ft | 375 kts | 245° |
| 2026-05-04 20:11 | 53.27624 | 174.41617 | 40139 ft | 375 kts | 245° |
| 2026-05-04 20:11 | 53.24969 | 174.34105 | 40141 ft | 376 kts | 245° |
| 2026-05-04 20:12 | 53.22301 | 174.26584 | 40137 ft | 377 kts | 245° |
| 2026-05-04 20:12 | 53.19627 | 174.19068 | 40138 ft | 377 kts | 245° |
| 2026-05-04 20:13 | 53.16946 | 174.11557 | 40138 ft | 377 kts | 245° |
| 2026-05-04 20:13 | 53.14266 | 174.04069 | 40132 ft | 376 kts | 245° |
| 2026-05-04 20:14 | 53.11563 | 173.96627 | 40117 ft | 379 kts | 238° |
| 2026-05-04 20:14 | 53.09688 | 173.93476 | 40151 ft | 387 kts | 226° |
| 2026-05-04 20:14 | 53.07565 | 173.90629 | 39566 ft | 400 kts | 224° |
| 2026-05-04 20:14 | 53.05211 | 173.88037 | 38890 ft | 416 kts | 211° |
| 2026-05-04 20:15 | 53.02388 | 173.86642 | 38097 ft | 433 kts | 192° |
| 2026-05-04 20:15 | 52.99338 | 173.86711 | 37307 ft | 446 kts | 174° |
| 2026-05-04 20:15 | 52.96343 | 173.88197 | 36553 ft | 454 kts | 157° |
| 2026-05-04 20:15 | 52.93670 | 173.91013 | 35811 ft | 458 kts | 139° |
| 2026-05-04 20:16 | 52.91428 | 173.94772 | 35120 ft | 458 kts | 131° |
| 2026-05-04 20:16 | 52.89348 | 173.98756 | 34412 ft | 457 kts | 130° |
| 2026-05-04 20:16 | 52.87305 | 174.02782 | 33649 ft | 455 kts | 129° |
| 2026-05-04 20:16 | 52.85281 | 174.06788 | 32846 ft | 453 kts | 129° |
| 2026-05-04 20:17 | 52.83267 | 174.10776 | 32065 ft | 450 kts | 129° |
| 2026-05-04 20:17 | 52.81269 | 174.14721 | 31307 ft | 446 kts | 129° |
| 2026-05-04 20:17 | 52.79310 | 174.18575 | 30581 ft | 442 kts | 129° |
| 2026-05-04 20:17 | 52.77336 | 174.22436 | 29799 ft | 438 kts | 129° |
| 2026-05-04 20:18 | 52.75375 | 174.26247 | 28959 ft | 433 kts | 129° |
| 2026-05-04 20:18 | 52.73431 | 174.29998 | 28149 ft | 428 kts | 129° |
| 2026-05-04 20:18 | 52.71500 | 174.33694 | 27360 ft | 423 kts | 129° |
| 2026-05-04 20:18 | 52.69446 | 174.37129 | 26571 ft | 421 kts | 141° |
| 2026-05-04 20:19 | 52.66895 | 174.39431 | 25826 ft | 419 kts | 160° |
| 2026-05-04 20:19 | 52.64048 | 174.40316 | 25115 ft | 416 kts | 178° |
| 2026-05-04 20:19 | 52.61210 | 174.39710 | 24408 ft | 412 kts | 197° |
| 2026-05-04 20:19 | 52.58648 | 174.37687 | 23712 ft | 407 kts | 216° |
| 2026-05-04 20:20 | 52.56599 | 174.34538 | 22902 ft | 401 kts | 230° |
| 2026-05-04 20:20 | 52.54850 | 174.31012 | 22110 ft | 397 kts | 233° |
| 2026-05-04 20:20 | 52.53171 | 174.27432 | 21323 ft | 394 kts | 233° |
| 2026-05-04 20:20 | 52.51523 | 174.23858 | 20559 ft | 391 kts | 234° |
| 2026-05-04 20:21 | 52.49900 | 174.20301 | 19847 ft | 387 kts | 233° |
| 2026-05-04 20:21 | 52.48305 | 174.16777 | 19195 ft | 382 kts | 235° |
| 2026-05-04 20:21 | 52.45202 | 174.09808 | 17843 ft | 375 kts | 234° |
| 2026-05-04 20:22 | 52.43683 | 174.06364 | 17123 ft | 371 kts | 234° |
| 2026-05-04 20:22 | 52.42186 | 174.02943 | 16421 ft | 368 kts | 234° |
| 2026-05-04 20:22 | 52.40705 | 173.99534 | 15731 ft | 365 kts | 234° |
| 2026-05-04 20:22 | 52.39247 | 173.96148 | 15065 ft | 362 kts | 234° |
| 2026-05-04 20:23 | 52.37807 | 173.92782 | 14408 ft | 360 kts | 234° |
| 2026-05-04 20:23 | 52.36387 | 173.89437 | 13740 ft | 357 kts | 234° |
| 2026-05-04 20:23 | 52.34979 | 173.86101 | 13016 ft | 354 kts | 234° |
| 2026-05-04 20:23 | 52.33590 | 173.82798 | 12313 ft | 351 kts | 234° |
| 2026-05-04 20:24 | 52.32248 | 173.79474 | 11614 ft | 349 kts | 241° |
| 2026-05-04 20:24 | 52.31525 | 173.75717 | 10926 ft | 348 kts | 264° |
| 2026-05-04 20:24 | 52.31700 | 173.71827 | 10277 ft | 342 kts | 287° |
| 2026-05-04 20:24 | 52.32754 | 173.68484 | 9981 ft | 323 kts | 311° |
| 2026-05-04 20:25 | 52.34319 | 173.65972 | 9595 ft | 309 kts | 322° |
| 2026-05-04 20:25 | 52.35941 | 173.63737 | 9189 ft | 301 kts | 323° |
| 2026-05-04 20:25 | 52.37538 | 173.61582 | 8787 ft | 294 kts | 324° |
| 2026-05-04 20:25 | 52.39104 | 173.59480 | 8391 ft | 289 kts | 324° |
| 2026-05-04 20:26 | 52.40643 | 173.57415 | 7999 ft | 284 kts | 323° |
| 2026-05-04 20:26 | 52.42159 | 173.55385 | 7620 ft | 280 kts | 324° |
| 2026-05-04 20:26 | 52.43655 | 173.53385 | 7241 ft | 276 kts | 324° |
| 2026-05-04 20:26 | 52.45138 | 173.51406 | 6865 ft | 273 kts | 324° |
| 2026-05-04 20:27 | 52.46608 | 173.49449 | 6487 ft | 271 kts | 324° |
| 2026-05-04 20:27 | 52.48065 | 173.47511 | 6092 ft | 268 kts | 324° |
| 2026-05-04 20:27 | 52.49511 | 173.45596 | 5698 ft | 267 kts | 324° |
| 2026-05-04 20:27 | 52.50952 | 173.43690 | 5311 ft | 265 kts | 324° |
| 2026-05-04 20:28 | 52.52387 | 173.41795 | 4918 ft | 264 kts | 324° |
| 2026-05-04 20:28 | 52.53817 | 173.39906 | 4529 ft | 263 kts | 324° |
| 2026-05-04 20:28 | 52.55238 | 173.38021 | 4124 ft | 262 kts | 324° |
| 2026-05-04 20:28 | 52.56650 | 173.36139 | 3732 ft | 261 kts | 324° |
| 2026-05-04 20:29 | 52.58051 | 173.34262 | 3336 ft | 259 kts | 324° |
| 2026-05-04 20:29 | 52.59441 | 173.32392 | 3033 ft | 255 kts | 324° |
| 2026-05-04 20:29 | 52.60776 | 173.30581 | 3007 ft | 245 kts | 324° |
| 2026-05-04 20:29 | 52.61641 | 173.29405 | 2996 ft | 242 kts | 324° |
| 2026-05-04 20:30 | 52.62937 | 173.27638 | 3006 ft | 242 kts | 324° |
| 2026-05-04 20:30 | 52.64239 | 173.25862 | 3007 ft | 244 kts | 323° |
| 2026-05-04 20:30 | 52.65550 | 173.24079 | 3003 ft | 245 kts | 324° |
| 2026-05-04 20:30 | 52.67292 | 173.21710 | 3004 ft | 246 kts | 324° |
| 2026-05-04 20:31 | 52.68187 | 173.20494 | 3004 ft | 247 kts | 324° |
| 2026-05-04 20:31 | 52.69512 | 173.18694 | 3000 ft | 247 kts | 324° |
| 2026-05-04 20:31 | 52.70832 | 173.16897 | 2998 ft | 242 kts | 324° |
| 2026-05-04 20:31 | 52.72117 | 173.15295 | 2997 ft | 222 kts | 337° |
| 2026-05-04 20:32 | 52.73475 | 173.14251 | 3008 ft | 212 kts | 340° |
| 2026-05-04 20:32 | 52.74769 | 173.13335 | 2873 ft | 194 kts | 349° |
| 2026-05-04 20:32 | 52.76072 | 173.13031 | 2295 ft | 186 kts | 9° |
| 2026-05-04 20:32 | 52.77299 | 173.13449 | 1848 ft | 171 kts | 27° |
| 2026-05-04 20:33 | 52.78290 | 173.14206 | 1696 ft | 143 kts | 34° |
| 2026-05-04 20:33 | 52.79096 | 173.14868 | 1440 ft | 120 kts | 34° |
| 2026-05-04 20:33 | 52.79821 | 173.15383 | 1129 ft | 108 kts | 29° |
| 2026-05-04 20:33 | 52.80516 | 173.15803 | 789 ft | 105 kts | 28° |
| 2026-05-04 20:34 | 52.81214 | 173.16240 | 509 ft | 108 kts | 28° |
| 2026-05-04 20:34 | 52.81897 | 173.16681 | 274 ft | 102 kts | 30° |
| 2026-05-04 20:34 | 52.82519 | 173.17087 | 89 ft | 91 kts | 30° |
| 2026-05-04 20:34 | 52.83107 | 173.17469 | 219 ft | 106 kts | 30° |
| 2026-05-04 20:35 | 52.83621 | 173.17809 | 1573 ft | 63 kts | 44° |
| 2026-05-04 20:35 | 52.83606 | 173.18555 | 2197 ft | 117 kts | 127° |
| 2026-05-04 20:35 | 52.82902 | 173.19131 | 2735 ft | 109 kts | 159° |
| 2026-05-04 20:35 | 52.82145 | 173.19424 | 3500 ft | 106 kts | 161° |
| 2026-05-04 20:36 | 52.81407 | 173.18656 | 4346 ft | 170 kts | 236° |
| 2026-05-04 20:36 | 52.81145 | 173.16851 | 5925 ft | 146 kts | 275° |
| 2026-05-04 20:36 | 52.81497 | 173.15694 | 7588 ft | 105 kts | 339° |
| 2026-05-04 20:36 | 52.82380 | 173.15968 | 7697 ft | 169 kts | 43° |
| 2026-05-04 20:37 | 52.83222 | 173.17955 | 7476 ft | 245 kts | 63° |
| 2026-05-04 20:37 | 52.83970 | 173.20410 | 7353 ft | 238 kts | 67° |
| 2026-05-04 20:37 | 52.84591 | 173.22952 | 7206 ft | 243 kts | 71° |
| 2026-05-04 20:37 | 52.85318 | 173.25510 | 6676 ft | 249 kts | 59° |
| 2026-05-04 20:38 | 52.86015 | 173.28098 | 6146 ft | 247 kts | 80° |
| 2026-05-04 20:38 | 52.86214 | 173.30856 | 5636 ft | 236 kts | 85° |
| 2026-05-04 20:38 | 52.86173 | 173.33491 | 5130 ft | 226 kts | 107° |
| 2026-05-04 20:38 | 52.85489 | 173.35777 | 4640 ft | 218 kts | 118° |
| 2026-05-04 20:39 | 52.84776 | 173.37920 | 4214 ft | 211 kts | 118° |
| 2026-05-04 20:39 | 52.83730 | 173.39619 | 3560 ft | 220 kts | 152° |
| 2026-05-04 20:39 | 52.82191 | 173.39918 | 2951 ft | 228 kts | 179° |
| 2026-05-04 20:39 | 52.80641 | 173.39725 | 2626 ft | 216 kts | 182° |
| 2026-05-04 20:40 | 52.79236 | 173.39074 | 2510 ft | 203 kts | 194° |
| 2026-05-04 20:40 | 52.77947 | 173.38296 | 2501 ft | 194 kts | 194° |
| 2026-05-04 20:40 | 52.76686 | 173.37530 | 2501 ft | 193 kts | 196° |
| 2026-05-04 20:40 | 52.75446 | 173.36593 | 2481 ft | 197 kts | 199° |
| 2026-05-04 20:41 | 52.74223 | 173.35653 | 2493 ft | 196 kts | 199° |
| 2026-05-04 20:41 | 52.73142 | 173.34265 | 2488 ft | 206 kts | 235° |
| 2026-05-04 20:41 | 52.72891 | 173.31965 | 2507 ft | 209 kts | 278° |
| 2026-05-04 20:41 | 52.73160 | 173.29689 | 2485 ft | 191 kts | 281° |
| 2026-05-04 20:42 | 52.73236 | 173.27649 | 2465 ft | 168 kts | 251° |
| 2026-05-04 20:42 | 52.72599 | 173.26229 | 2503 ft | 149 kts | 205° |
| 2026-05-04 20:42 | 52.71737 | 173.25293 | 2508 ft | 149 kts | 206° |
| 2026-05-04 20:42 | 52.70876 | 173.24318 | 2502 ft | 151 kts | 207° |
| 2026-05-04 20:43 | 52.70075 | 173.23176 | 2472 ft | 159 kts | 233° |
| 2026-05-04 20:43 | 52.69886 | 173.21401 | 2505 ft | 160 kts | 276° |
| 2026-05-04 20:43 | 52.69995 | 173.19559 | 2499 ft | 162 kts | 275° |
| 2026-05-04 20:43 | 52.70286 | 173.17770 | 2483 ft | 162 kts | 300° |
| 2026-05-04 20:44 | 52.70813 | 173.16160 | 2531 ft | 160 kts | 304° |
| 2026-05-04 20:44 | 52.71436 | 173.14644 | 2425 ft | 155 kts | 310° |
| 2026-05-04 20:44 | 52.72102 | 173.13365 | 2574 ft | 139 kts | 327° |
| 2026-05-04 20:44 | 52.72734 | 173.12404 | 3564 ft | 116 kts | 285° |
| 2026-05-04 20:45 | 52.72443 | 173.11018 | 3851 ft | 143 kts | 208° |
| 2026-05-04 20:45 | 52.71562 | 173.10898 | 4058 ft | 125 kts | 146° |
| 2026-05-04 20:45 | 52.71173 | 173.11991 | 4442 ft | 123 kts | 84° |
| 2026-05-04 20:45 | 52.71718 | 173.13373 | 4233 ft | 165 kts | 44° |
| 2026-05-04 20:46 | 52.72784 | 173.14386 | 3868 ft | 200 kts | 28° |
| 2026-05-04 20:46 | 52.74167 | 173.14929 | 3268 ft | 204 kts | 10° |
| 2026-05-04 20:46 | 52.75549 | 173.14897 | 2702 ft | 191 kts | 2° |
| 2026-05-04 20:46 | 52.76831 | 173.14745 | 2111 ft | 181 kts | 3° |
| 2026-05-04 20:47 | 52.77978 | 173.14674 | 1780 ft | 148 kts | 8° |
| 2026-05-04 20:47 | 52.78884 | 173.14899 | 1429 ft | 121 kts | 21° |
| 2026-05-04 20:47 | 52.79613 | 173.15199 | 1184 ft | 98 kts | 26° |
| 2026-05-04 20:47 | 52.80262 | 173.15623 | 890 ft | 104 kts | 34° |
| 2026-05-04 20:48 | 52.80823 | 173.16355 | 1219 ft | 103 kts | 68° |
| 2026-05-04 20:48 | 52.80702 | 173.17385 | 1775 ft | 99 kts | 131° |
| 2026-05-04 20:48 | 52.80018 | 173.17640 | 2420 ft | 98 kts | 172° |
| 2026-05-04 20:48 | 52.79622 | 173.18059 | 3120 ft | 95 kts | 86° |
| 2026-05-04 20:49 | 52.80210 | 173.18984 | 3115 ft | 153 kts | 13° |
| 2026-05-04 20:49 | 52.81238 | 173.18218 | 2641 ft | 176 kts | 314° |
| 2026-05-04 20:49 | 52.81690 | 173.16448 | 2480 ft | 164 kts | 271° |
| 2026-05-04 20:49 | 52.81414 | 173.14476 | 2514 ft | 184 kts | 241° |
| 2026-05-04 20:50 | 52.80740 | 173.12850 | 2392 ft | 162 kts | 219° |
| 2026-05-04 20:50 | 52.79797 | 173.11762 | 2114 ft | 169 kts | 195° |
| 2026-05-04 20:50 | 52.78715 | 173.11489 | 1812 ft | 147 kts | 167° |
| 2026-05-04 20:50 | 52.77881 | 173.12116 | 1584 ft | 125 kts | 128° |
| 2026-05-04 20:51 | 52.77660 | 173.13405 | 1278 ft | 118 kts | 81° |
| 2026-05-04 20:51 | 52.78119 | 173.14539 | 1209 ft | 129 kts | 43° |
| 2026-05-04 20:51 | 52.78961 | 173.15138 | 1016 ft | 133 kts | 22° |
| 2026-05-04 20:51 | 52.79834 | 173.15447 | 767 ft | 124 kts | 20° |
| 2026-05-04 20:52 | 52.80624 | 173.15886 | 581 ft | 120 kts | 26° |
| 2026-05-04 20:52 | 52.81400 | 173.16346 | 318 ft | 114 kts | 28° |
| 2026-05-04 20:52 | 52.82108 | 173.16831 | 150 ft | 111 kts | 28° |
| 2026-05-04 20:52 | 52.82828 | 173.17293 | 47 ft | 105 kts | 20° |
| 2026-05-04 20:53 | 52.83370 | 173.17622 | 40 ft | 49 kts | 21° |
| 2026-05-04 20:53 | 52.83462 | 173.17690 | 42 ft | 5 kts | 50° |
| 2026-05-04 20:53 | 52.83475 | 173.17735 | 42 ft | 5 kts | 70° |
| 2026-05-04 20:53 | 52.83496 | 173.17800 | 45 ft | 6 kts | 40° |
| 2026-05-04 20:54 | 52.83505 | 173.17806 | 43 ft | 0 kts | 20° |